Aviation Digital Data Service (ADDS)

Output produced by METARs form (0335 UTC 18 June 2019)
found at http://www.aviationweather.gov/metar/data/
 
Forecast for: HEMA (MARSA ALAM INTL , EG)
Text: TAF HEMA 172300Z 1800/1906 28012KT CAVOK
Forecast period: 0000 UTC 18 June 2019 to 0600 UTC 19 June 2019
Forecast type: FROM: standard forecast or significant change
Winds: from the W (280 degrees) at 14 MPH (12 knots; 6.2 m/s)
Visibility: 6 or more miles 10+ km)
Ceiling: unknown
Clouds: missing
Weather: NSW  (no significant weather)